sensor_id;sensor_type;location;lat;lon;timestamp;pressure;altitude;pressure_sealevel;temperature;humidity
19526;BME280;9907;42.676;26.348;2023-01-31T00:01:19;98424.19;;;-0.01;100.00
19526;BME280;9907;42.676;26.348;2023-01-31T00:03:45;98427.22;;;0.08;100.00
19526;BME280;9907;42.676;26.348;2023-01-31T00:06:13;98431.72;;;0.06;100.00
19526;BME280;9907;42.676;26.348;2023-01-31T00:08:39;98434.41;;;0.04;100.00
19526;BME280;9907;42.676;26.348;2023-01-31T00:11:05;98429.44;;;-0.01;100.00
19526;BME280;9907;42.676;26.348;2023-01-31T00:13:31;98428.66;;;-0.03;100.00
19526;BME280;9907;42.676;26.348;2023-01-31T00:15:57;98431.41;;;-0.04;100.00
19526;BME280;9907;42.676;26.348;2023-01-31T00:18:22;98432.81;;;0.02;100.00
19526;BME280;9907;42.676;26.348;2023-01-31T00:20:48;98427.38;;;0.05;100.00
19526;BME280;9907;42.676;26.348;2023-01-31T00:23:13;98419.13;;;-0.19;100.00
19526;BME280;9907;42.676;26.348;2023-01-31T00:25:39;98420.00;;;-0.19;100.00
19526;BME280;9907;42.676;26.348;2023-01-31T00:28:04;98404.91;;;-0.15;100.00
19526;BME280;9907;42.676;26.348;2023-01-31T00:30:30;98412.44;;;-0.09;100.00
19526;BME280;9907;42.676;26.348;2023-01-31T00:32:55;98401.31;;;-0.14;100.00
19526;BME280;9907;42.676;26.348;2023-01-31T00:35:21;98406.56;;;-0.14;100.00
19526;BME280;9907;42.676;26.348;2023-01-31T00:37:46;98399.97;;;-0.06;100.00
19526;BME280;9907;42.676;26.348;2023-01-31T00:40:12;98399.47;;;-0.12;100.00
19526;BME280;9907;42.676;26.348;2023-01-31T00:42:37;98405.59;;;-0.12;100.00
19526;BME280;9907;42.676;26.348;2023-01-31T00:45:03;98403.09;;;-0.15;100.00
19526;BME280;9907;42.676;26.348;2023-01-31T00:47:28;98407.44;;;-0.14;100.00
19526;BME280;9907;42.676;26.348;2023-01-31T00:49:54;98394.72;;;-0.21;100.00
19526;BME280;9907;42.676;26.348;2023-01-31T00:52:19;98383.06;;;-0.16;100.00
19526;BME280;9907;42.676;26.348;2023-01-31T00:54:45;98387.09;;;-0.10;100.00
19526;BME280;9907;42.676;26.348;2023-01-31T00:57:10;98382.28;;;-0.18;100.00
19526;BME280;9907;42.676;26.348;2023-01-31T00:59:36;98385.16;;;-0.07;100.00
19526;BME280;9907;42.676;26.348;2023-01-31T01:02:01;98380.06;;;-0.10;100.00
19526;BME280;9907;42.676;26.348;2023-01-31T01:04:27;98377.63;;;-0.13;100.00
19526;BME280;9907;42.676;26.348;2023-01-31T01:06:52;98377.63;;;-0.13;100.00
19526;BME280;9907;42.676;26.348;2023-01-31T01:09:17;98384.91;;;-0.18;100.00
19526;BME280;9907;42.676;26.348;2023-01-31T01:11:44;98379.31;;;-0.12;100.00
19526;BME280;9907;42.676;26.348;2023-01-31T01:14:09;98382.69;;;-0.10;100.00
19526;BME280;9907;42.676;26.348;2023-01-31T01:16:37;98376.59;;;-0.10;100.00
19526;BME280;9907;42.676;26.348;2023-01-31T01:19:05;98386.91;;;-0.07;100.00
19526;BME280;9907;42.676;26.348;2023-01-31T01:21:32;98382.34;;;-0.04;100.00
19526;BME280;9907;42.676;26.348;2023-01-31T01:24:04;98382.53;;;-0.07;100.00
19526;BME280;9907;42.676;26.348;2023-01-31T01:26:30;98382.69;;;-0.10;100.00
19526;BME280;9907;42.676;26.348;2023-01-31T01:28:57;98371.69;;;-0.01;100.00
19526;BME280;9907;42.676;26.348;2023-01-31T01:31:23;98374.78;;;0.06;100.00
19526;BME280;9907;42.676;26.348;2023-01-31T01:34:04;98371.75;;;-0.02;100.00
19526;BME280;9907;42.676;26.348;2023-01-31T01:36:32;98361.94;;;0.02;100.00
19526;BME280;9907;42.676;26.348;2023-01-31T01:38:58;98364.72;;;-0.02;100.00
19526;BME280;9907;42.676;26.348;2023-01-31T01:41:24;98354.41;;;-0.05;100.00
19526;BME280;9907;42.676;26.348;2023-01-31T01:43:56;98360.50;;;-0.04;100.00
19526;BME280;9907;42.676;26.348;2023-01-31T01:46:35;98362.97;;;-0.01;100.00
19526;BME280;9907;42.676;26.348;2023-01-31T01:49:29;98350.50;;;0.03;100.00
19526;BME280;9907;42.676;26.348;2023-01-31T01:51:59;98344.41;;;0.02;100.00
19526;BME280;9907;42.676;26.348;2023-01-31T01:54:34;98352.94;;;0.06;100.00
19526;BME280;9907;42.676;26.348;2023-01-31T01:57:02;98361.44;;;-0.05;100.00
19526;BME280;9907;42.676;26.348;2023-01-31T01:59:37;98359.47;;;-0.02;100.00
19526;BME280;9907;42.676;26.348;2023-01-31T02:02:07;98371.31;;;0.06;100.00
19526;BME280;9907;42.676;26.348;2023-01-31T02:04:36;98379.63;;;-0.02;100.00
19526;BME280;9907;42.676;26.348;2023-01-31T02:07:02;98385.47;;;0.03;100.00
19526;BME280;9907;42.676;26.348;2023-01-31T02:09:46;98377.25;;;0.09;100.00
19526;BME280;9907;42.676;26.348;2023-01-31T02:12:13;98364.56;;;0.02;100.00
19526;BME280;9907;42.676;26.348;2023-01-31T02:14:39;98385.38;;;0.05;100.00
19526;BME280;9907;42.676;26.348;2023-01-31T02:17:13;98379.28;;;0.04;100.00
19526;BME280;9907;42.676;26.348;2023-01-31T02:22:56;98378.59;;;0.00;100.00
19526;BME280;9907;42.676;26.348;2023-01-31T02:34:12;98361.69;;;-0.10;100.00
19526;BME280;9907;42.676;26.348;2023-01-31T02:42:07;98371.97;;;-0.21;100.00
19526;BME280;9907;42.676;26.348;2023-01-31T02:45:08;98376.59;;;-0.10;100.00
19526;BME280;9907;42.676;26.348;2023-01-31T02:48:14;98376.25;;;-0.04;100.00
19526;BME280;9907;42.676;26.348;2023-01-31T02:50:58;98368.09;;;0.00;100.00
19526;BME280;9907;42.676;26.348;2023-01-31T02:53:35;98376.16;;;-0.03;100.00
19526;BME280;9907;42.676;26.348;2023-01-31T02:56:16;98380.41;;;0.00;100.00
19526;BME280;9907;42.676;26.348;2023-01-31T03:01:16;98375.84;;;0.04;100.00
19526;BME280;9907;42.676;26.348;2023-01-31T03:03:42;98364.19;;;0.08;100.00
19526;BME280;9907;42.676;26.348;2023-01-31T03:06:08;98374.88;;;0.05;100.00
19526;BME280;9907;42.676;26.348;2023-01-31T03:08:38;98379.56;;;-0.01;100.00
19526;BME280;9907;42.676;26.348;2023-01-31T03:11:07;98377.41;;;0.06;100.00
19526;BME280;9907;42.676;26.348;2023-01-31T03:16:33;98374.56;;;-0.05;100.00
19526;BME280;9907;42.676;26.348;2023-01-31T03:22:33;98384.56;;;-0.12;100.00
19526;BME280;9907;42.676;26.348;2023-01-31T03:24:59;98398.63;;;-0.13;100.00
19526;BME280;9907;42.676;26.348;2023-01-31T03:27:27;98392.09;;;-0.06;100.00
19526;BME280;9907;42.676;26.348;2023-01-31T03:29:57;98396.59;;;-0.08;100.00
19526;BME280;9907;42.676;26.348;2023-01-31T03:32:30;98392.53;;;-0.13;100.00
19526;BME280;9907;42.676;26.348;2023-01-31T03:34:57;98391.47;;;0.05;100.00
19526;BME280;9907;42.676;26.348;2023-01-31T03:37:39;98391.72;;;0.00;100.00
19526;BME280;9907;42.676;26.348;2023-01-31T03:42:52;98390.81;;;0.02;100.00
19526;BME280;9907;42.676;26.348;2023-01-31T03:47:54;98372.88;;;-0.06;100.00
19526;BME280;9907;42.676;26.348;2023-01-31T03:50:41;98370.66;;;0.02;100.00
19526;BME280;9907;42.676;26.348;2023-01-31T03:55:51;98368.09;;;0.00;100.00
19526;BME280;9907;42.676;26.348;2023-01-31T03:58:20;98366.06;;;0.06;100.00
19526;BME280;9907;42.676;26.348;2023-01-31T04:00:49;98369.44;;;0.08;100.00
19526;BME280;9907;42.676;26.348;2023-01-31T04:05:47;98365.69;;;0.12;100.00
19526;BME280;9907;42.676;26.348;2023-01-31T04:08:14;98377.91;;;0.13;100.00
19526;BME280;9907;42.676;26.348;2023-01-31T04:10:40;98372.34;;;0.03;100.00
19526;BME280;9907;42.676;26.348;2023-01-31T04:13:05;98372.59;;;-0.02;100.00
19526;BME280;9907;42.676;26.348;2023-01-31T04:15:31;98372.91;;;0.08;100.00
19526;BME280;9907;42.676;26.348;2023-01-31T04:17:56;98385.19;;;0.08;100.00
19526;BME280;9907;42.676;26.348;2023-01-31T04:20:22;98375.06;;;0.02;100.00
19526;BME280;9907;42.676;26.348;2023-01-31T04:22:47;98378.03;;;-0.05;100.00
19526;BME280;9907;42.676;26.348;2023-01-31T04:25:13;98388.19;;;-0.14;100.00
19526;BME280;9907;42.676;26.348;2023-01-31T04:27:38;98386.84;;;-0.21;100.00
19526;BME280;9907;42.676;26.348;2023-01-31T04:30:05;98384.06;;;-0.18;100.00
19526;BME280;9907;42.676;26.348;2023-01-31T04:32:31;98377.13;;;-0.19;100.00
19526;BME280;9907;42.676;26.348;2023-01-31T04:34:56;98386.59;;;-0.17;100.00
19526;BME280;9907;42.676;26.348;2023-01-31T04:37:22;98378.25;;;-0.23;100.00
19526;BME280;9907;42.676;26.348;2023-01-31T04:39:47;98378.31;;;-0.25;100.00
19526;BME280;9907;42.676;26.348;2023-01-31T04:42:13;98377.31;;;-0.22;100.00
19526;BME280;9907;42.676;26.348;2023-01-31T04:44:38;98378.66;;;-0.31;100.00
19526;BME280;9907;42.676;26.348;2023-01-31T04:47:04;98388.75;;;-0.23;100.00
19526;BME280;9907;42.676;26.348;2023-01-31T04:49:29;98389.16;;;-0.31;100.00
19526;BME280;9907;42.676;26.348;2023-01-31T04:51:55;98395.34;;;-0.32;100.00
19526;BME280;9907;42.676;26.348;2023-01-31T04:54:20;98402.03;;;-0.26;100.00
19526;BME280;9907;42.676;26.348;2023-01-31T04:56:46;98408.34;;;-0.15;100.00
19526;BME280;9907;42.676;26.348;2023-01-31T04:59:11;98407.84;;;-0.21;100.00
19526;BME280;9907;42.676;26.348;2023-01-31T05:01:37;98408.03;;;-0.09;100.00
19526;BME280;9907;42.676;26.348;2023-01-31T05:04:02;98406.09;;;-0.21;100.00
19526;BME280;9907;42.676;26.348;2023-01-31T05:06:28;98414.22;;;-0.25;100.00
19526;BME280;9907;42.676;26.348;2023-01-31T05:08:53;98408.22;;;-0.12;100.00
19526;BME280;9907;42.676;26.348;2023-01-31T05:11:19;98403.47;;;-0.21;100.00
19526;BME280;9907;42.676;26.348;2023-01-31T05:13:45;98398.47;;;-0.25;100.00
19526;BME280;9907;42.676;26.348;2023-01-31T05:16:12;98405.59;;;-0.12;100.00
19526;BME280;9907;42.676;26.348;2023-01-31T05:18:38;98410.47;;;-0.21;100.00
19526;BME280;9907;42.676;26.348;2023-01-31T05:21:05;98396.06;;;-0.14;100.00
19526;BME280;9907;42.676;26.348;2023-01-31T05:23:31;98406.31;;;0.06;100.00
19526;BME280;9907;42.676;26.348;2023-01-31T05:25:57;98396.91;;;0.32;100.00
19526;BME280;9907;42.676;26.348;2023-01-31T05:28:23;98406.31;;;0.36;100.00
19526;BME280;9907;42.676;26.348;2023-01-31T05:30:59;98397.34;;;0.54;100.00
19526;BME280;9907;42.676;26.348;2023-01-31T05:33:25;98394.53;;;0.57;100.00
19526;BME280;9907;42.676;26.348;2023-01-31T05:35:52;98395.53;;;0.84;100.00
19526;BME280;9907;42.676;26.348;2023-01-31T05:38:17;98404.16;;;0.86;100.00
19526;BME280;9907;42.676;26.348;2023-01-31T05:40:43;98412.75;;;0.74;100.00
19526;BME280;9907;42.676;26.348;2023-01-31T05:43:08;98415.59;;;0.71;100.00
19526;BME280;9907;42.676;26.348;2023-01-31T05:45:34;98420.19;;;0.82;100.00
19526;BME280;9907;42.676;26.348;2023-01-31T05:47:59;98418.00;;;1.18;100.00
19526;BME280;9907;42.676;26.348;2023-01-31T05:50:25;98422.94;;;1.23;100.00
19526;BME280;9907;42.676;26.348;2023-01-31T05:52:52;98414.31;;;1.35;100.00
19526;BME280;9907;42.676;26.348;2023-01-31T05:55:18;98411.88;;;1.32;100.00
19526;BME280;9907;42.676;26.348;2023-01-31T05:57:44;98419.47;;;1.36;100.00
19526;BME280;9907;42.676;26.348;2023-01-31T06:00:10;98429.69;;;1.41;100.00
19526;BME280;9907;42.676;26.348;2023-01-31T06:02:35;98430.00;;;1.51;100.00
19526;BME280;9907;42.676;26.348;2023-01-31T06:05:01;98437.00;;;1.64;100.00
19526;BME280;9907;42.676;26.348;2023-01-31T06:07:27;98431.91;;;1.75;100.00
19526;BME280;9907;42.676;26.348;2023-01-31T06:09:52;98439.41;;;1.81;100.00
19526;BME280;9907;42.676;26.348;2023-01-31T06:12:18;98434.78;;;1.85;98.37
19526;BME280;9907;42.676;26.348;2023-01-31T06:14:43;98431.88;;;1.89;98.29
19526;BME280;9907;42.676;26.348;2023-01-31T06:17:10;98449.28;;;1.78;100.00
19526;BME280;9907;42.676;26.348;2023-01-31T06:19:36;98440.56;;;1.77;100.00
19526;BME280;9907;42.676;26.348;2023-01-31T06:22:03;98456.47;;;1.76;100.00
19526;BME280;9907;42.676;26.348;2023-01-31T06:24:29;98453.34;;;1.83;100.00
19526;BME280;9907;42.676;26.348;2023-01-31T06:26:55;98454.38;;;1.81;100.00
19526;BME280;9907;42.676;26.348;2023-01-31T06:29:20;98451.81;;;1.93;100.00
19526;BME280;9907;42.676;26.348;2023-01-31T06:31:46;98449.63;;;2.00;98.89
19526;BME280;9907;42.676;26.348;2023-01-31T06:34:11;98461.41;;;1.94;100.00
19526;BME280;9907;42.676;26.348;2023-01-31T06:36:37;98460.44;;;2.10;100.00
19526;BME280;9907;42.676;26.348;2023-01-31T06:39:02;98457.63;;;1.99;100.00
19526;BME280;9907;42.676;26.348;2023-01-31T06:41:28;98462.22;;;2.09;99.62
19526;BME280;9907;42.676;26.348;2023-01-31T06:43:55;98458.53;;;2.12;99.16
19526;BME280;9907;42.676;26.348;2023-01-31T06:46:20;98460.09;;;2.28;97.56
19526;BME280;9907;42.676;26.348;2023-01-31T06:48:46;98452.81;;;2.32;95.40
19526;BME280;9907;42.676;26.348;2023-01-31T06:51:13;98456.53;;;2.42;95.48
19526;BME280;9907;42.676;26.348;2023-01-31T06:53:38;98457.03;;;2.34;96.70
19526;BME280;9907;42.676;26.348;2023-01-31T06:56:04;98465.00;;;2.47;94.94
19526;BME280;9907;42.676;26.348;2023-01-31T06:58:30;98452.97;;;2.43;94.31
19526;BME280;9907;42.676;26.348;2023-01-31T07:00:55;98463.75;;;2.26;97.03
19526;BME280;9907;42.676;26.348;2023-01-31T07:03:21;98461.22;;;2.24;94.56
19526;BME280;9907;42.676;26.348;2023-01-31T07:05:46;98462.94;;;2.38;92.01
19526;BME280;9907;42.676;26.348;2023-01-31T07:08:13;98465.78;;;2.35;93.50
19526;BME280;9907;42.676;26.348;2023-01-31T07:10:38;98463.44;;;2.30;95.74
19526;BME280;9907;42.676;26.348;2023-01-31T07:13:04;98467.66;;;2.33;95.95
19526;BME280;9907;42.676;26.348;2023-01-31T07:15:29;98467.50;;;2.36;94.36
19526;BME280;9907;42.676;26.348;2023-01-31T07:17:58;98465.88;;;2.33;93.18
19526;BME280;9907;42.676;26.348;2023-01-31T07:20:24;98462.66;;;2.42;93.48
19526;BME280;9907;42.676;26.348;2023-01-31T07:22:56;98465.97;;;2.59;94.16
19526;BME280;9907;42.676;26.348;2023-01-31T07:25:22;98467.16;;;2.40;94.15
19526;BME280;9907;42.676;26.348;2023-01-31T07:27:47;98470.91;;;2.51;93.13
19526;BME280;9907;42.676;26.348;2023-01-31T07:30:13;98485.88;;;2.50;94.95
19526;BME280;9907;42.676;26.348;2023-01-31T07:32:38;98481.59;;;2.62;95.45
19526;BME280;9907;42.676;26.348;2023-01-31T07:35:04;98489.38;;;2.63;96.61
19526;BME280;9907;42.676;26.348;2023-01-31T07:37:30;98484.22;;;2.62;94.48
19526;BME280;9907;42.676;26.348;2023-01-31T07:39:55;98472.41;;;2.67;93.59
19526;BME280;9907;42.676;26.348;2023-01-31T07:42:21;98482.47;;;2.75;91.62
19526;BME280;9907;42.676;26.348;2023-01-31T07:44:46;98468.28;;;2.63;92.65
19526;BME280;9907;42.676;26.348;2023-01-31T07:47:12;98477.06;;;2.64;92.10
19526;BME280;9907;42.676;26.348;2023-01-31T07:49:37;98476.13;;;2.77;90.44
19526;BME280;9907;42.676;26.348;2023-01-31T07:52:03;98469.06;;;2.65;92.23
19526;BME280;9907;42.676;26.348;2023-01-31T07:54:28;98480.84;;;2.60;90.50
19526;BME280;9907;42.676;26.348;2023-01-31T07:56:54;98476.41;;;2.60;88.81
19526;BME280;9907;42.676;26.348;2023-01-31T07:59:19;98481.38;;;2.65;88.71
19526;BME280;9907;42.676;26.348;2023-01-31T08:01:45;98484.44;;;2.71;90.24
19526;BME280;9907;42.676;26.348;2023-01-31T08:04:28;98491.00;;;2.78;90.18
19526;BME280;9907;42.676;26.348;2023-01-31T08:06:55;98486.38;;;2.82;89.85
19526;BME280;9907;42.676;26.348;2023-01-31T08:09:21;98507.91;;;2.88;88.97
19526;BME280;9907;42.676;26.348;2023-01-31T08:11:47;98491.63;;;2.69;92.05
19526;BME280;9907;42.676;26.348;2023-01-31T08:14:13;98500.72;;;2.78;90.13
19526;BME280;9907;42.676;26.348;2023-01-31T08:16:38;98510.41;;;2.77;89.98
19526;BME280;9907;42.676;26.348;2023-01-31T08:19:04;98505.59;;;2.84;89.91
19526;BME280;9907;42.676;26.348;2023-01-31T08:21:30;98505.56;;;2.71;92.16
19526;BME280;9907;42.676;26.348;2023-01-31T08:23:55;98517.50;;;2.77;93.69
19526;BME280;9907;42.676;26.348;2023-01-31T08:26:21;98517.03;;;2.70;93.60
19526;BME280;9907;42.676;26.348;2023-01-31T08:28:48;98509.34;;;2.67;92.89
19526;BME280;9907;42.676;26.348;2023-01-31T08:31:17;98511.25;;;2.78;92.37
19526;BME280;9907;42.676;26.348;2023-01-31T08:33:43;98517.38;;;2.78;88.99
19526;BME280;9907;42.676;26.348;2023-01-31T08:36:13;98520.97;;;2.77;89.22
19526;BME280;9907;42.676;26.348;2023-01-31T08:38:39;98529.00;;;2.88;88.55
19526;BME280;9907;42.676;26.348;2023-01-31T08:41:06;98517.00;;;2.84;88.22
19526;BME280;9907;42.676;26.348;2023-01-31T08:43:31;98537.25;;;2.84;90.21
19526;BME280;9907;42.676;26.348;2023-01-31T08:45:57;98548.22;;;2.90;88.16
19526;BME280;9907;42.676;26.348;2023-01-31T08:48:22;98541.00;;;3.07;87.50
19526;BME280;9907;42.676;26.348;2023-01-31T08:50:48;98550.91;;;3.16;86.43
19526;BME280;9907;42.676;26.348;2023-01-31T08:53:13;98541.81;;;2.94;85.74
19526;BME280;9907;42.676;26.348;2023-01-31T08:55:39;98542.53;;;2.97;86.37
19526;BME280;9907;42.676;26.348;2023-01-31T08:58:04;98550.97;;;2.89;88.48
19526;BME280;9907;42.676;26.348;2023-01-31T09:00:30;98546.38;;;3.05;87.50
19526;BME280;9907;42.676;26.348;2023-01-31T09:02:57;98546.59;;;3.15;85.68
19526;BME280;9907;42.676;26.348;2023-01-31T09:05:27;98546.47;;;3.04;87.91
19526;BME280;9907;42.676;26.348;2023-01-31T09:07:53;98551.34;;;3.10;85.95
19526;BME280;9907;42.676;26.348;2023-01-31T09:10:20;98556.28;;;3.02;88.98
19526;BME280;9907;42.676;26.348;2023-01-31T09:12:46;98545.59;;;3.03;90.58
19526;BME280;9907;42.676;26.348;2023-01-31T09:15:12;98554.19;;;3.07;90.36
19526;BME280;9907;42.676;26.348;2023-01-31T09:17:39;98564.03;;;3.17;88.73
19526;BME280;9907;42.676;26.348;2023-01-31T09:20:05;98555.69;;;3.23;87.03
19526;BME280;9907;42.676;26.348;2023-01-31T09:22:32;98562.31;;;3.29;86.17
19526;BME280;9907;42.676;26.348;2023-01-31T09:24:59;98567.59;;;3.29;84.84
19526;BME280;9907;42.676;26.348;2023-01-31T09:27:25;98569.41;;;3.16;84.77
19526;BME280;9907;42.676;26.348;2023-01-31T09:29:51;98564.53;;;3.22;83.48
19526;BME280;9907;42.676;26.348;2023-01-31T09:32:17;98552.44;;;3.32;83.51
19526;BME280;9907;42.676;26.348;2023-01-31T09:34:44;98559.50;;;3.32;83.15
19526;BME280;9907;42.676;26.348;2023-01-31T09:37:11;98566.16;;;3.25;83.85
19526;BME280;9907;42.676;26.348;2023-01-31T09:39:36;98559.91;;;3.26;85.21
19526;BME280;9907;42.676;26.348;2023-01-31T09:42:24;98564.56;;;3.35;86.52
19526;BME280;9907;42.676;26.348;2023-01-31T09:45:01;98555.81;;;3.34;83.96
19526;BME280;9907;42.676;26.348;2023-01-31T09:47:36;98544.31;;;3.35;83.79
19526;BME280;9907;42.676;26.348;2023-01-31T09:53:22;98541.97;;;3.56;84.00
19526;BME280;9907;42.676;26.348;2023-01-31T10:06:47;98527.91;;;3.30;82.47
19526;BME280;9907;42.676;26.348;2023-01-31T10:11:53;98533.72;;;3.23;80.69
19526;BME280;9907;42.676;26.348;2023-01-31T10:17:08;98523.59;;;3.42;81.44
19526;BME280;9907;42.676;26.348;2023-01-31T10:22:20;98518.44;;;3.53;80.76
19526;BME280;9907;42.676;26.348;2023-01-31T10:24:57;98515.34;;;3.59;81.74
19526;BME280;9907;42.676;26.348;2023-01-31T10:27:41;98514.59;;;3.70;79.82
19526;BME280;9907;42.676;26.348;2023-01-31T10:30:17;98513.56;;;3.72;78.78
19526;BME280;9907;42.676;26.348;2023-01-31T10:32:47;98513.47;;;3.61;80.02
19526;BME280;9907;42.676;26.348;2023-01-31T10:35:39;98513.56;;;3.60;79.70
19526;BME280;9907;42.676;26.348;2023-01-31T10:40:42;98506.16;;;3.65;79.99
19526;BME280;9907;42.676;26.348;2023-01-31T10:43:26;98491.16;;;3.65;81.75
19526;BME280;9907;42.676;26.348;2023-01-31T10:46:00;98490.00;;;3.69;82.45
19526;BME280;9907;42.676;26.348;2023-01-31T10:48:28;98491.03;;;3.79;79.11
19526;BME280;9907;42.676;26.348;2023-01-31T10:54:05;98497.31;;;3.66;78.17
19526;BME280;9907;42.676;26.348;2023-01-31T10:56:41;98493.81;;;3.65;79.01
19526;BME280;9907;42.676;26.348;2023-01-31T10:59:35;98488.81;;;3.73;78.89
19526;BME280;9907;42.676;26.348;2023-01-31T11:02:02;98484.81;;;3.68;78.31
19526;BME280;9907;42.676;26.348;2023-01-31T11:04:40;98489.81;;;3.47;79.28
19526;BME280;9907;42.676;26.348;2023-01-31T11:07:07;98491.06;;;3.54;79.74
19526;BME280;9907;42.676;26.348;2023-01-31T11:09:39;98482.09;;;3.69;80.61
19526;BME280;9907;42.676;26.348;2023-01-31T11:12:07;98480.47;;;3.79;79.92
19526;BME280;9907;42.676;26.348;2023-01-31T11:14:33;98472.41;;;3.81;80.40
19526;BME280;9907;42.676;26.348;2023-01-31T11:17:03;98470.06;;;3.89;79.77
19526;BME280;9907;42.676;26.348;2023-01-31T11:22:33;98471.06;;;3.88;81.27
19526;BME280;9907;42.676;26.348;2023-01-31T11:25:01;98474.09;;;3.95;81.53
19526;BME280;9907;42.676;26.348;2023-01-31T11:27:41;98467.97;;;3.94;81.35
19526;BME280;9907;42.676;26.348;2023-01-31T11:32:44;98482.25;;;3.91;79.94
19526;BME280;9907;42.676;26.348;2023-01-31T11:37:56;98463.31;;;3.98;79.28
19526;BME280;9907;42.676;26.348;2023-01-31T11:45:43;98465.00;;;3.99;81.26
19526;BME280;9907;42.676;26.348;2023-01-31T11:48:16;98464.38;;;3.95;79.62
19526;BME280;9907;42.676;26.348;2023-01-31T11:50:57;98462.13;;;4.02;82.45
19526;BME280;9907;42.676;26.348;2023-01-31T11:53:38;98469.19;;;4.14;82.24
19526;BME280;9907;42.676;26.348;2023-01-31T11:56:28;98473.88;;;4.21;80.06
19526;BME280;9907;42.676;26.348;2023-01-31T11:58:57;98465.78;;;4.12;81.54
19526;BME280;9907;42.676;26.348;2023-01-31T12:01:27;98463.59;;;4.29;79.56
19526;BME280;9907;42.676;26.348;2023-01-31T12:03:58;98466.69;;;4.23;79.37
19526;BME280;9907;42.676;26.348;2023-01-31T12:06:28;98467.41;;;4.25;80.25
19526;BME280;9907;42.676;26.348;2023-01-31T12:08:56;98465.34;;;4.18;81.64
19526;BME280;9907;42.676;26.348;2023-01-31T12:14:11;98462.03;;;4.27;80.64
19526;BME280;9907;42.676;26.348;2023-01-31T12:16:38;98468.44;;;4.12;80.87
19526;BME280;9907;42.676;26.348;2023-01-31T12:22:00;98467.25;;;4.16;83.12
19526;BME280;9907;42.676;26.348;2023-01-31T12:35:01;98487.31;;;4.18;78.44
19526;BME280;9907;42.676;26.348;2023-01-31T12:37:53;98484.34;;;4.23;79.65
19526;BME280;9907;42.676;26.348;2023-01-31T12:40:40;98478.69;;;4.16;78.92
19526;BME280;9907;42.676;26.348;2023-01-31T12:46:14;98492.19;;;4.24;78.65
19526;BME280;9907;42.676;26.348;2023-01-31T12:51:43;98491.25;;;4.49;78.08
19526;BME280;9907;42.676;26.348;2023-01-31T13:00:41;98501.66;;;4.39;76.83
19526;BME280;9907;42.676;26.348;2023-01-31T13:06:17;98486.84;;;4.37;76.44
19526;BME280;9907;42.676;26.348;2023-01-31T13:08:57;98481.72;;;4.23;78.52
19526;BME280;9907;42.676;26.348;2023-01-31T13:11:29;98495.22;;;4.31;78.05
19526;BME280;9907;42.676;26.348;2023-01-31T13:14:22;98501.22;;;4.33;79.86
19526;BME280;9907;42.676;26.348;2023-01-31T13:16:52;98497.63;;;4.34;80.21
19526;BME280;9907;42.676;26.348;2023-01-31T13:19:31;98503.69;;;4.36;81.52
19526;BME280;9907;42.676;26.348;2023-01-31T13:22:02;98498.78;;;4.43;79.90
19526;BME280;9907;42.676;26.348;2023-01-31T13:24:40;98499.06;;;4.27;77.28
19526;BME280;9907;42.676;26.348;2023-01-31T13:27:28;98510.06;;;4.21;77.75
19526;BME280;9907;42.676;26.348;2023-01-31T13:30:02;98510.16;;;4.32;77.74
19526;BME280;9907;42.676;26.348;2023-01-31T13:32:43;98517.91;;;4.46;76.97
19526;BME280;9907;42.676;26.348;2023-01-31T13:35:31;98517.78;;;4.24;76.95
19526;BME280;9907;42.676;26.348;2023-01-31T13:38:10;98519.81;;;4.20;77.66
19526;BME280;9907;42.676;26.348;2023-01-31T13:40:48;98515.69;;;4.16;78.95
19526;BME280;9907;42.676;26.348;2023-01-31T13:43:15;98523.50;;;4.18;78.83
19526;BME280;9907;42.676;26.348;2023-01-31T13:45:44;98527.09;;;4.17;78.99
19526;BME280;9907;42.676;26.348;2023-01-31T13:51:16;98516.31;;;4.43;77.16
19526;BME280;9907;42.676;26.348;2023-01-31T13:56:52;98532.16;;;4.20;77.26
19526;BME280;9907;42.676;26.348;2023-01-31T13:59:25;98524.97;;;4.22;77.52
19526;BME280;9907;42.676;26.348;2023-01-31T14:01:53;98529.53;;;4.20;76.13
19526;BME280;9907;42.676;26.348;2023-01-31T14:04:23;98531.66;;;4.15;76.19
19526;BME280;9907;42.676;26.348;2023-01-31T14:06:53;98531.72;;;4.26;75.96
19526;BME280;9907;42.676;26.348;2023-01-31T14:11:59;98525.38;;;4.28;75.47
19526;BME280;9907;42.676;26.348;2023-01-31T14:17:11;98530.75;;;4.39;74.67
19526;BME280;9907;42.676;26.348;2023-01-31T14:22:34;98543.59;;;4.20;75.21
19526;BME280;9907;42.676;26.348;2023-01-31T14:25:05;98536.28;;;4.24;75.46
19526;BME280;9907;42.676;26.348;2023-01-31T14:30:42;98545.31;;;4.09;75.18
19526;BME280;9907;42.676;26.348;2023-01-31T14:33:25;98551.31;;;4.11;75.12
19526;BME280;9907;42.676;26.348;2023-01-31T14:42:09;98562.94;;;4.21;73.71
19526;BME280;9907;42.676;26.348;2023-01-31T14:55:58;98568.56;;;4.16;72.10
19526;BME280;9907;42.676;26.348;2023-01-31T14:58:26;98574.69;;;4.17;72.79
19526;BME280;9907;42.676;26.348;2023-01-31T15:00:59;98572.91;;;4.05;72.72
19526;BME280;9907;42.676;26.348;2023-01-31T15:03:29;98587.59;;;4.09;72.42
19526;BME280;9907;42.676;26.348;2023-01-31T15:06:11;98584.50;;;4.15;72.53
19526;BME280;9907;42.676;26.348;2023-01-31T15:08:50;98577.03;;;4.09;73.67
19526;BME280;9907;42.676;26.348;2023-01-31T15:11:38;98571.06;;;4.18;74.91
19526;BME280;9907;42.676;26.348;2023-01-31T15:14:24;98581.63;;;4.30;72.80
19526;BME280;9907;42.676;26.348;2023-01-31T15:16:59;98584.59;;;4.26;72.20
19526;BME280;9907;42.676;26.348;2023-01-31T15:19:28;98589.25;;;4.35;71.95
19526;BME280;9907;42.676;26.348;2023-01-31T15:22:03;98578.28;;;4.16;73.60
19526;BME280;9907;42.676;26.348;2023-01-31T15:26:59;98585.06;;;4.07;74.19
19526;BME280;9907;42.676;26.348;2023-01-31T15:32:24;98586.66;;;3.97;75.10
19526;BME280;9907;42.676;26.348;2023-01-31T15:35:29;98590.38;;;3.69;76.58
19526;BME280;9907;42.676;26.348;2023-01-31T15:38:19;98600.72;;;3.85;76.04
19526;BME280;9907;42.676;26.348;2023-01-31T15:40:46;98604.97;;;3.87;74.13
19526;BME280;9907;42.676;26.348;2023-01-31T15:43:23;98602.00;;;3.79;75.30
19526;BME280;9907;42.676;26.348;2023-01-31T15:45:50;98605.78;;;3.75;76.63